Detalii statie AGROSAMI SACALAZ [00001988]

Toti senzorii

Date Temperatura solului [C]Precipitatii [mm]Voltaj baterie [mV]Leaf Wetness [Min]HC Air temperature [C]HC Relative humidity [%]Punctul de roua [C]
medieminmaxsumaultimatimpmedieminmaxmediemediemin
2018-10-13 15:00:00 0 7314 25.8 25.2 26.57 39.1 10.6 10.1
2018-10-13 16:00:00 0 7324 26.03 25.26 26.58 37.67 10.2 9.1
2018-10-13 17:00:00 0 7226 24.03 22.36 25.16 39.75 9.2 9
2018-10-13 18:00:00 0 7088 20.5 18.62 22.24 47.34 8.7 8.4
2018-10-13 19:00:00 0 7030 17.39 16.65 18.37 56.54 8.5 8.3
2018-10-13 20:00:00 0 7010 16.02 15.44 16.59 62 8.5 8.2
2018-10-13 21:00:00 0 7010 15.29 14.29 15.58 64.68 8.5 8.4
2018-10-13 22:00:00 0 7000 12.43 11.61 14.05 76.38 8.2 7.8
2018-10-13 23:00:00 0 7000 11.38 10.84 11.97 82.88 8.4 8.3
2018-10-14 00:00:00 0 6982 10.76 10.61 11.05 89.25 8.9 8.6
2018-10-14 01:00:00 0 6972 10.61 10.16 10.89 93.12 9.4 8.8
2018-10-14 02:00:00 0 6972 10.45 10.02 10.81 92.75 9.2 8.7
2018-10-14 03:00:00 0 6962 10.14 10.02 10.21 95.44 9.3 9.2
2018-10-14 04:00:00 0 6952 10.12 10.01 10.26 97.05 9.5 9.4
2018-10-14 05:00:00 0 6942 9.39 8.72 10.02 99.54 9.2 8.7
2018-10-14 06:00:00 0 6942 9.26 9.15 9.4 100 9.2 9.1
2018-10-14 07:00:00 0 6914 8.44 7.83 8.99 100 8.4 7.8
2018-10-14 08:00:00 0 6972 9.51 9.02 10.35 98.66 9.2 9
2018-10-14 09:00:00 0 7050 11.87 10.62 14.05 83.16 8.9 8.4
2018-10-14 10:00:00 0 7332 16.36 14.59 18.91 58.61 8 7.4
2018-10-14 11:00:00 0 7332 21.2 18.97 23.66 36.69 5.3 4
2018-10-14 12:00:00 0 7324 23.87 23.37 24.41 29.83 4.9 4.2
2018-10-14 13:00:00 0 7324 24.1 22.82 24.97 31.27 5.8 4.3
2018-10-14 14:00:00 0 7324 24.81 24.38 25.48 31.31 6.4 6.1
2018-10-14 15:00:00 0 7324 25.39 24.75 26.01 28.31 5.4 4.8
2018-10-14 16:00:00 0 7314 23.38 20.91 25.02 29.76 4.4 3
2018-10-14 17:00:00 0 7216 19.16 17.57 20.61 35.74 3.3 2.8
2018-10-14 18:00:00 0 7070 15.62 14.37 17.32 45.6 3.7 2.9
2018-10-14 19:00:00 0 7030 14.17 13.64 14.64 48.82 3.3 2.2
2018-10-14 20:00:00 0 7000 14.37 14.02 14.62 38.83 0.3 -0.2
2018-10-14 21:00:00 0 7000 12.72 11.88 13.67 42 0 -0.3
2018-10-14 22:00:00 0 6982 10.54 9.75 11.47 48.06 0 -0.7
2018-10-14 23:00:00 0 6962 9.76 9.03 10.59 57.66 1.6 0.2
2018-10-15 00:00:00 0 6962 9.99 9.54 10.6 56.5 1.6 0.9
2018-10-15 01:00:00 0 6952 10.32 10.03 10.59 59.71 2.6 1.6
2018-10-15 02:00:00 0 6942 10.27 9.78 10.78 66.27 4.1 3.7
2018-10-15 03:00:00 0 6932 8.18 6.59 9.86 71.57 3.2 2.3
2018-10-15 04:00:00 0 6922 8.22 6.58 8.82 75.07 3.9 3.1
2018-10-15 05:00:00 0 6932 8.87 8.19 9.08 70.89 3.7 3.4
2018-10-15 06:00:00 0 6922 8.74 8.4 8.98 73.15 4 3.7
2018-10-15 07:00:00 0 6914 7.35 6.74 8.32 78.45 3.7 3.5
2018-10-15 08:00:00 0 6952 7.25 7.04 7.39 78.46 3.6 3.3
2018-10-15 09:00:00 0 7010 9.97 7.59 13.32 68.83 4.2 3.9
2018-10-15 10:00:00 0 7324 16.59 13.92 19.45 46.63 4.8 4.3
2018-10-15 11:00:00 0 7332 21.06 19.59 22.86 36.19 5.1 4.7
2018-10-15 12:00:00 0 7324 24.05 22.97 24.93 29.93 5.1 4.6
2018-10-15 13:00:00 0 7314 25.75 24.79 26.87 27.58 5.3 5
2018-10-15 14:00:00 0 7314 26.11 25.57 26.59 26.48 5.1 4.6